CNY weather

Canyonlands Field
Moab, Utah, United States

Public forecast

Using degrees Fahrenheit for public forecast. Weather courtesy of forecast.io.

METAR (pilot weather report)

Retrieved 2019/07/24 07:53 UTC (9 minutes ago):

KCNY 240753Z AUTO 05005KT 10SM CLR 28/07 A3011 RMK AO2 SLP120 T02780067

TAF (pilot weather forecast)

Retrieved 2019/07/24 06:33 UTC (1 hour ago):

TAF KCNY 240529Z 2406/2506 13013KT P6SM VCTS FEW080CB BKN150 FM240900 15004KT P6SM OVC250 FM242100 27009KT P6SM VCTS FEW080CB BKN100 FM250300 35007KT P6SM OVC250